createdAt,value
2022-10-22T00:00:56.154Z,100028.56
2022-10-22T00:03:58.222Z,100031.22
2022-10-22T00:07:00.183Z,100025.25
2022-10-22T00:10:02.390Z,100025.56
2022-10-22T00:13:05.189Z,100021.16
2022-10-22T00:16:07.589Z,100016.75
2022-10-22T00:19:09.654Z,100017.53
2022-10-22T00:22:11.935Z,100010.84
2022-10-22T00:25:14.076Z,100013.87
2022-10-22T00:28:16.144Z,100014.66
2022-10-22T00:31:20.171Z,100019.28
2022-10-22T00:34:22.993Z,100014.94
2022-10-22T00:37:25.066Z,100009.47
2022-10-22T00:40:27.098Z,100005.31
2022-10-22T00:43:29.101Z,100004.03
2022-10-22T00:46:31.246Z,99990.03
2022-10-22T00:49:33.317Z,99996.56
2022-10-22T00:52:36.058Z,99996.00
2022-10-22T00:55:40.015Z,99983.56
2022-10-22T00:58:47.312Z,99982.56
2022-10-22T01:01:50.440Z,99983.25
2022-10-22T01:04:52.392Z,99994.00
2022-10-22T01:07:54.655Z,99997.59
2022-10-22T01:11:33.953Z,99989.69
2022-10-22T01:14:57.453Z,99980.63
2022-10-22T01:18:32.712Z,99971.94
2022-10-22T01:21:40.195Z,99973.25
2022-10-22T01:25:08.154Z,99970.25
2022-10-22T01:28:23.540Z,99973.03
2022-10-22T01:31:31.473Z,99969.87
2022-10-22T01:34:33.807Z,99962.63
2022-10-22T01:37:41.825Z,99955.59
2022-10-22T01:40:45.712Z,99957.28
2022-10-22T01:43:47.853Z,99962.41
2022-10-22T01:46:55.453Z,99941.03
2022-10-22T01:50:25.733Z,99927.47
2022-10-22T01:53:40.348Z,99930.91
2022-10-22T01:56:45.346Z,99929.88
2022-10-22T02:00:00.773Z,99936.09
2022-10-22T02:03:09.866Z,99940.63
2022-10-22T02:06:18.969Z,99928.88
2022-10-22T02:09:23.195Z,99928.47
2022-10-22T02:12:28.917Z,99924.97
2022-10-22T02:15:33.334Z,99927.31
2022-10-22T02:18:40.345Z,99922.81
2022-10-22T02:21:42.589Z,99925.78
2022-10-22T02:24:45.020Z,99914.69
2022-10-22T02:27:52.520Z,99914.69
2022-10-22T02:30:59.019Z,99921.59
2022-10-22T02:34:08.917Z,99926.25
2022-10-22T02:37:11.320Z,99923.59
2022-10-22T02:40:13.604Z,99918.78
2022-10-22T02:43:15.592Z,99926.78
2022-10-22T02:46:17.665Z,99921.59
2022-10-22T02:49:19.709Z,99912.03
2022-10-22T02:52:21.755Z,99913.09
2022-10-22T02:55:23.760Z,99909.19
2022-10-22T02:58:25.924Z,99911.47
2022-10-22T03:01:27.979Z,99909.63
2022-10-22T03:04:30.185Z,99916.75
2022-10-22T03:07:32.158Z,99922.75
2022-10-22T03:10:34.160Z,99912.56
2022-10-22T03:13:36.061Z,99917.63
2022-10-22T03:16:38.053Z,99912.19
2022-10-22T03:19:40.001Z,99909.47
2022-10-22T03:22:43.826Z,99924.63
2022-10-22T03:25:48.612Z,99919.75
2022-10-22T03:28:51.300Z,99921.94
2022-10-22T03:31:54.924Z,99910.72
2022-10-22T03:34:56.930Z,99913.12
2022-10-22T03:38:01.557Z,99916.38
2022-10-22T03:41:03.992Z,99922.78
2022-10-22T03:44:06.287Z,99928.66
2022-10-22T03:47:08.539Z,99921.34
2022-10-22T03:50:11.077Z,99922.69
2022-10-22T03:53:13.113Z,99930.25
2022-10-22T03:56:15.123Z,99929.09
2022-10-22T03:59:17.497Z,99924.28
2022-10-22T04:02:19.655Z,99922.28
2022-10-22T04:05:21.590Z,99922.53
2022-10-22T04:08:23.669Z,99928.12
2022-10-22T04:11:25.725Z,99929.75
2022-10-22T04:14:27.821Z,99929.16
2022-10-22T04:17:36.676Z,99925.34
2022-10-22T04:20:38.688Z,99920.88
2022-10-22T04:23:47.421Z,99919.19
2022-10-22T04:26:49.415Z,99921.41
2022-10-22T04:29:52.382Z,99924.06
2022-10-22T04:32:54.371Z,99912.19
2022-10-22T04:35:56.359Z,99911.25
2022-10-22T04:39:00.747Z,99919.63
2022-10-22T04:42:02.934Z,99918.31
2022-10-22T04:45:05.103Z,99927.53
2022-10-22T04:48:07.288Z,99912.28
2022-10-22T04:51:12.197Z,99915.19
2022-10-22T04:54:15.060Z,99918.59
2022-10-22T04:57:17.255Z,99922.34
2022-10-22T05:00:19.289Z,99922.84
2022-10-22T05:03:21.246Z,99932.41
2022-10-22T05:06:24.517Z,99948.37
2022-10-22T05:09:26.432Z,99936.62
2022-10-22T05:12:29.766Z,99925.13
2022-10-22T05:15:33.648Z,99924.75
2022-10-22T05:18:40.512Z,99924.87
2022-10-22T05:21:42.486Z,99919.06
2022-10-22T05:24:44.578Z,99921.06
2022-10-22T05:27:50.027Z,99912.19
2022-10-22T05:30:59.408Z,99918.69
2022-10-22T05:34:01.636Z,99910.56
2022-10-22T05:37:03.900Z,99911.59
2022-10-22T05:40:19.505Z,99904.47
2022-10-22T05:43:29.303Z,99910.88
2022-10-22T05:46:34.881Z,99915.94
2022-10-22T05:49:37.925Z,99915.25
2022-10-22T05:52:40.089Z,99919.84
2022-10-22T05:55:42.294Z,99928.09
2022-10-22T05:58:45.238Z,99926.53
2022-10-22T06:01:47.305Z,99926.53
2022-10-22T06:04:49.269Z,99937.06
2022-10-22T06:07:51.289Z,99950.72
2022-10-22T06:10:53.364Z,99932.81
2022-10-22T06:13:55.380Z,99928.06
2022-10-22T06:17:00.495Z,99933.66
2022-10-22T06:20:02.770Z,99929.16
2022-10-22T06:23:04.841Z,99922.72
2022-10-22T06:26:07.926Z,99927.34
2022-10-22T06:29:10.826Z,99921.28
2022-10-22T06:32:12.794Z,99917.53
2022-10-22T06:35:14.905Z,99931.87
2022-10-22T06:38:16.939Z,99924.94
2022-10-22T06:41:19.437Z,99922.75
2022-10-22T06:44:21.854Z,99938.84
2022-10-22T06:47:23.960Z,99935.78
2022-10-22T06:50:26.054Z,99944.00
2022-10-22T06:53:28.067Z,99946.59
2022-10-22T06:56:30.195Z,99941.28
2022-10-22T06:59:32.654Z,99950.28
2022-10-22T07:02:34.717Z,99949.22
2022-10-22T07:05:36.918Z,99935.28
2022-10-22T07:08:40.419Z,99944.06
2022-10-22T07:11:45.433Z,99938.53
2022-10-22T07:14:48.727Z,99943.03
2022-10-22T07:17:52.163Z,99947.28
2022-10-22T07:20:54.735Z,99938.56
2022-10-22T07:23:57.866Z,99935.41
2022-10-22T07:26:59.890Z,99924.87
2022-10-22T07:30:02.574Z,99928.75
2022-10-22T07:33:05.364Z,99934.53
2022-10-22T07:36:10.995Z,99923.69
2022-10-22T07:39:13.414Z,99929.88
2022-10-22T07:42:15.580Z,99932.13
2022-10-22T07:45:17.692Z,99938.81
2022-10-22T07:48:20.319Z,99948.19
2022-10-22T07:51:23.145Z,99957.13
2022-10-22T07:54:25.249Z,99951.84
2022-10-22T07:57:27.534Z,99957.84
2022-10-22T08:00:29.723Z,99957.63
2022-10-22T08:03:32.357Z,99949.16
2022-10-22T08:06:35.009Z,99968.81
2022-10-22T08:09:37.145Z,99961.91
2022-10-22T08:12:40.169Z,99959.69
2022-10-22T08:18:51.393Z,99970.09
2022-10-22T08:21:53.272Z,99971.06
2022-10-22T08:24:55.289Z,99966.38
2022-10-22T08:27:57.353Z,99970.87
2022-10-22T08:30:59.813Z,99967.38
2022-10-22T08:34:01.832Z,99970.87
2022-10-22T08:37:03.848Z,99967.06
2022-10-22T08:40:21.900Z,99967.75
2022-10-22T08:43:48.768Z,99968.22
2022-10-22T08:47:46.509Z,99965.38
2022-10-22T08:50:51.736Z,99990.62
2022-10-22T08:54:06.076Z,99987.25
2022-10-22T09:00:47.792Z,99968.97
2022-10-22T09:03:59.316Z,99970.06
2022-10-22T09:07:01.286Z,99977.63
2022-10-22T09:10:03.931Z,99973.38
2022-10-22T09:13:05.908Z,99968.81
2022-10-22T09:16:35.664Z,99988.94
2022-10-22T09:20:07.303Z,99982.12
2022-10-22T09:23:27.798Z,99987.25
2022-10-22T09:26:34.132Z,99992.84
2022-10-22T09:29:37.188Z,99990.03
2022-10-22T09:32:39.953Z,99995.75
2022-10-22T09:36:11.516Z,100000.34
2022-10-22T09:39:34.173Z,100004.16
2022-10-22T09:42:36.095Z,100005.25
2022-10-22T09:45:38.030Z,100014.56
2022-10-22T09:48:43.102Z,100005.47
2022-10-22T09:51:59.869Z,100005.31
2022-10-22T09:55:07.149Z,100012.41
2022-10-22T09:58:12.833Z,100018.06
2022-10-22T10:01:25.076Z,100021.84
2022-10-22T10:04:27.308Z,100026.03
2022-10-22T10:07:34.086Z,100022.34
2022-10-22T10:10:45.591Z,100018.50
2022-10-22T10:13:52.828Z,100016.13
2022-10-22T10:17:12.494Z,100030.75
2022-10-22T10:20:41.115Z,100026.53
2022-10-22T10:23:54.542Z,100033.94
2022-10-22T10:27:20.319Z,100031.06
2022-10-22T10:30:24.184Z,100030.56
2022-10-22T10:33:46.295Z,100024.59
2022-10-22T10:37:14.610Z,100022.78
2022-10-22T10:40:28.610Z,100020.22
2022-10-22T10:43:45.831Z,100026.09
2022-10-22T10:47:04.261Z,100032.22
2022-10-22T10:50:44.642Z,100034.50
2022-10-22T10:53:52.327Z,100036.28
2022-10-22T10:57:03.282Z,100037.63
2022-10-22T11:00:22.115Z,100038.50
2022-10-22T11:03:59.026Z,100042.34
2022-10-22T11:07:16.749Z,100035.62
2022-10-22T11:10:42.081Z,100030.59
2022-10-22T11:13:59.252Z,100033.56
2022-10-22T11:17:17.157Z,100031.00
2022-10-22T11:20:26.479Z,100039.38
2022-10-22T11:23:55.998Z,100041.13
2022-10-22T11:27:18.546Z,100030.56
2022-10-22T11:30:23.894Z,100036.94
2022-10-22T11:33:31.542Z,100038.44
2022-10-22T11:36:34.482Z,100033.94
2022-10-22T11:39:53.806Z,100042.97
2022-10-22T11:43:04.912Z,100032.22
2022-10-22T11:46:15.654Z,100023.72
2022-10-22T11:49:22.666Z,100033.37
2022-10-22T11:52:32.671Z,100042.47
2022-10-22T11:55:48.117Z,100030.25
2022-10-22T11:58:53.937Z,100040.13
2022-10-22T12:01:56.832Z,100035.75
2022-10-22T12:05:17.941Z,100036.34
2022-10-22T12:08:24.241Z,100032.84
2022-10-22T12:11:45.281Z,100035.03
2022-10-22T12:14:56.778Z,100027.13
2022-10-22T12:18:05.992Z,100032.22
2022-10-22T12:21:14.102Z,100038.50
2022-10-22T12:24:19.319Z,100036.75
2022-10-22T12:27:39.159Z,100044.19
2022-10-22T12:30:41.578Z,100042.34
2022-10-22T12:33:43.712Z,100056.41
2022-10-22T12:36:48.218Z,100037.34
2022-10-22T12:39:51.471Z,100040.94
2022-10-22T12:42:59.303Z,100040.72
2022-10-22T12:46:01.351Z,100049.91
2022-10-22T12:49:08.774Z,100029.53
2022-10-22T12:52:30.957Z,100033.75
2022-10-22T12:55:34.485Z,100043.53
2022-10-22T12:58:43.054Z,100036.69
2022-10-22T13:01:45.824Z,100032.97
2022-10-22T13:05:06.345Z,100027.91
2022-10-22T13:08:17.004Z,100025.12
2022-10-22T13:11:21.402Z,100030.41
2022-10-22T13:14:26.174Z,100039.88
2022-10-22T13:17:41.089Z,100028.62
2022-10-22T13:20:54.283Z,100037.06
2022-10-22T13:24:02.280Z,100032.88
2022-10-22T13:27:04.668Z,100047.81
2022-10-22T13:30:19.343Z,100042.53
2022-10-22T13:33:27.088Z,100055.13
2022-10-22T13:36:29.520Z,100069.09
2022-10-22T13:39:32.884Z,100076.81
2022-10-22T13:42:36.154Z,100079.31
2022-10-22T13:45:38.220Z,100083.84
2022-10-22T13:48:40.923Z,100094.28
2022-10-22T13:51:43.819Z,100082.53
2022-10-22T13:54:46.036Z,100087.22
2022-10-22T13:57:48.627Z,100102.88
2022-10-22T14:00:55.911Z,100103.12
2022-10-22T14:04:02.190Z,100105.31
2022-10-22T14:07:04.596Z,100095.13
2022-10-22T14:10:24.352Z,100104.41
2022-10-22T14:13:26.778Z,100098.31
2022-10-22T14:16:32.851Z,100102.16
2022-10-22T14:19:35.128Z,100096.78
2022-10-22T14:22:37.111Z,100092.84
2022-10-22T14:25:39.157Z,100106.62
2022-10-22T14:29:04.354Z,100091.84
2022-10-22T14:32:03.465Z,100098.84
2022-10-22T14:35:06.249Z,100100.44
2022-10-22T14:38:09.816Z,100090.75
2022-10-22T14:41:24.017Z,100087.47
2022-10-22T14:44:26.184Z,100101.94
2022-10-22T14:47:28.322Z,100097.09
2022-10-22T14:50:30.355Z,100102.91
2022-10-22T14:53:32.325Z,100113.62
2022-10-22T14:56:34.582Z,100113.22
2022-10-22T14:59:36.886Z,100105.72
2022-10-22T15:02:39.179Z,100109.59
2022-10-22T15:05:44.821Z,100116.81
2022-10-22T15:08:47.648Z,100122.56
2022-10-22T15:11:50.523Z,100123.44
2022-10-22T15:14:52.748Z,100140.56
2022-10-22T15:17:55.185Z,100145.03
2022-10-22T15:21:00.462Z,100138.03
2022-10-22T15:24:03.076Z,100146.94
2022-10-22T15:27:05.519Z,100155.87
2022-10-22T15:30:08.852Z,100165.44
2022-10-22T15:33:11.551Z,100171.59
2022-10-22T15:36:16.595Z,100173.06
2022-10-22T15:39:19.185Z,100174.78
2022-10-22T15:42:23.554Z,100175.84
2022-10-22T15:45:26.152Z,100185.19
2022-10-22T15:48:28.662Z,100190.72
2022-10-22T15:51:31.549Z,100202.19
2022-10-22T15:54:34.643Z,100209.94
2022-10-22T15:57:38.387Z,100215.34
2022-10-22T16:00:41.123Z,100222.41
2022-10-22T16:03:43.897Z,100231.03
2022-10-22T16:06:54.585Z,100239.00
2022-10-22T16:09:58.415Z,100251.09
2022-10-22T16:13:00.869Z,100252.56
2022-10-22T16:16:08.167Z,100252.16
2022-10-22T16:19:17.087Z,100243.13
2022-10-22T16:22:19.874Z,100263.41
2022-10-22T16:25:25.142Z,100263.75
2022-10-22T16:28:28.416Z,100270.87
2022-10-22T16:31:31.448Z,100265.56
2022-10-22T16:34:34.497Z,100268.94
2022-10-22T16:37:36.953Z,100278.94
2022-10-22T16:40:42.759Z,100285.25
2022-10-22T16:43:48.872Z,100299.81
2022-10-22T16:46:53.204Z,100316.94
2022-10-22T16:49:55.760Z,100327.56
2022-10-22T16:52:58.691Z,100336.38
2022-10-22T16:56:02.159Z,100338.72
2022-10-22T16:59:06.821Z,100332.03
2022-10-22T17:02:12.944Z,100342.09
2022-10-22T17:05:16.268Z,100341.87
2022-10-22T17:08:20.336Z,100350.62
2022-10-22T17:11:24.673Z,100349.97
2022-10-22T17:14:28.783Z,100339.97
2022-10-22T17:17:32.936Z,100342.28
2022-10-22T17:20:36.366Z,100359.75
2022-10-22T17:23:40.066Z,100350.59
2022-10-22T17:26:45.285Z,100354.94
2022-10-22T17:29:48.374Z,100358.44
2022-10-22T17:32:51.544Z,100368.00
2022-10-22T17:35:58.827Z,100374.16
2022-10-22T17:39:03.984Z,100383.94
2022-10-22T17:42:06.785Z,100383.75
2022-10-22T17:45:10.098Z,100382.97
2022-10-22T17:48:13.138Z,100392.66
2022-10-22T17:51:18.211Z,100395.12
2022-10-22T17:54:22.911Z,100389.69
2022-10-22T17:57:27.887Z,100380.69
2022-10-22T18:00:33.028Z,100371.88
2022-10-22T18:03:36.450Z,100369.50
2022-10-22T18:06:39.576Z,100369.06
2022-10-22T18:09:43.042Z,100367.03
2022-10-22T18:12:47.149Z,100356.75
2022-10-22T18:15:56.923Z,100345.78
2022-10-22T18:19:01.224Z,100340.19
2022-10-22T18:22:06.878Z,100340.19
2022-10-22T18:25:10.497Z,100333.91
2022-10-22T18:28:14.520Z,100338.37
2022-10-22T18:31:20.878Z,100344.66
2022-10-22T18:34:25.214Z,100357.59
2022-10-22T18:37:31.238Z,100371.41
2022-10-22T18:40:45.703Z,100379.37
2022-10-22T18:43:57.703Z,100394.22
2022-10-22T18:47:04.684Z,100391.06
2022-10-22T18:50:14.447Z,100392.31
2022-10-22T18:53:22.553Z,100392.72
2022-10-22T18:56:26.876Z,100385.72
2022-10-22T18:59:31.630Z,100379.53
2022-10-22T19:02:34.556Z,100387.78
2022-10-22T19:05:54.313Z,100400.09
2022-10-22T19:09:01.514Z,100409.75
2022-10-22T19:12:05.248Z,100421.53
2022-10-22T19:15:09.273Z,100435.09
2022-10-22T19:18:13.501Z,100430.75
2022-10-22T19:21:35.850Z,100438.78
2022-10-22T19:24:39.217Z,100448.47
2022-10-22T19:27:45.813Z,100451.13
2022-10-22T19:30:50.492Z,100458.13
2022-10-22T19:33:55.453Z,100465.44
2022-10-22T19:36:58.871Z,100475.06
2022-10-22T19:40:02.259Z,100475.19
2022-10-22T19:43:05.803Z,100479.72
2022-10-22T19:46:10.559Z,100479.47
2022-10-22T19:49:15.444Z,100484.66
2022-10-22T19:52:20.183Z,100487.22
2022-10-22T19:55:23.643Z,100487.41
2022-10-22T19:58:27.740Z,100489.94
2022-10-22T20:01:33.758Z,100495.47
2022-10-22T20:04:36.927Z,100508.91
2022-10-22T20:07:39.626Z,100513.25
2022-10-22T20:10:43.291Z,100513.94
2022-10-22T20:13:49.611Z,100513.06
2022-10-22T20:16:55.273Z,100518.37
2022-10-22T20:19:59.589Z,100524.44
2022-10-22T20:23:02.158Z,100522.63
2022-10-22T20:26:05.970Z,100519.13
2022-10-22T20:29:08.563Z,100524.56
2022-10-22T20:32:12.695Z,100526.31
2022-10-22T20:35:16.691Z,100524.44
2022-10-22T20:38:19.638Z,100526.31
2022-10-22T20:41:23.421Z,100530.72
2022-10-22T20:44:26.361Z,100537.72
2022-10-22T20:47:39.304Z,100535.81
2022-10-22T20:50:54.296Z,100535.44
2022-10-22T20:53:57.310Z,100536.63
2022-10-22T20:56:59.883Z,100535.94
2022-10-22T21:00:02.048Z,100535.44
2022-10-22T21:03:04.075Z,100542.34
2022-10-22T21:06:06.650Z,100550.00
2022-10-22T21:09:14.147Z,100537.56
2022-10-22T21:12:16.267Z,100558.63
2022-10-22T21:15:18.302Z,100563.09
2022-10-22T21:18:20.471Z,100571.03
2022-10-22T21:21:22.484Z,100579.84
2022-10-22T21:24:26.387Z,100573.81
2022-10-22T21:27:28.473Z,100566.78
2022-10-22T21:30:30.528Z,100576.66
2022-10-22T21:33:38.132Z,100573.38
2022-10-22T21:36:41.232Z,100575.25
2022-10-22T21:39:44.549Z,100577.06
2022-10-22T21:42:46.869Z,100566.63
2022-10-22T21:45:48.914Z,100565.87
2022-10-22T21:48:59.356Z,100576.59
2022-10-22T21:52:02.858Z,100567.69
2022-10-22T21:55:05.330Z,100579.25
2022-10-22T21:58:08.448Z,100575.75
2022-10-22T22:01:12.151Z,100570.44
2022-10-22T22:04:14.129Z,100554.53
2022-10-22T22:07:16.184Z,100565.22
2022-10-22T22:10:18.291Z,100562.75
2022-10-22T22:13:25.004Z,100563.72
2022-10-22T22:16:30.119Z,100563.72
2022-10-22T22:19:32.124Z,100573.50
2022-10-22T22:22:34.031Z,100573.69
2022-10-22T22:25:36.040Z,100564.97
2022-10-22T22:28:38.254Z,100564.44
2022-10-22T22:31:40.430Z,100578.72
2022-10-22T22:34:42.423Z,100571.91
2022-10-22T22:37:44.599Z,100567.75
2022-10-22T22:40:46.575Z,100572.37
2022-10-22T22:43:48.678Z,100578.00
2022-10-22T22:46:50.665Z,100581.88
2022-10-22T22:49:52.613Z,100580.38
2022-10-22T22:52:54.664Z,100580.66
2022-10-22T22:56:18.509Z,100584.53
2022-10-22T22:59:20.611Z,100582.94
2022-10-22T23:02:41.278Z,100582.47
2022-10-22T23:05:43.509Z,100571.09
2022-10-22T23:08:49.398Z,100581.09
2022-10-22T23:11:51.834Z,100583.94
2022-10-22T23:14:53.780Z,100583.41
2022-10-22T23:17:55.808Z,100575.63
2022-10-22T23:20:57.766Z,100575.78
2022-10-22T23:24:02.233Z,100573.31
2022-10-22T23:27:04.406Z,100566.50
2022-10-22T23:30:07.047Z,100574.03
2022-10-22T23:33:11.900Z,100570.62
2022-10-22T23:36:14.552Z,100576.28
2022-10-22T23:39:19.524Z,100571.16
2022-10-22T23:42:21.483Z,100568.72
2022-10-22T23:45:23.527Z,100564.47
2022-10-22T23:48:25.577Z,100566.44
2022-10-22T23:51:27.967Z,100568.56
2022-10-22T23:54:29.976Z,100563.56
2022-10-22T23:57:31.924Z,100568.25
